Time;durP1;ratioP1;P1;durP2;ratioP2;P2;SDS_P1;SDS_P2;PMS_P1;PMS_P2;Temp;Humidity;BMP_temperature;BMP_pressure;BME280_temperature;BME280_humidity;BME280_pressure;Samples;Min_cycle;Max_cycle;Signal;HPM_P1;HPM_P2
2021/04/15 00:01:10;;;;;;;11.20;8.90;;;3.10;70.70;;;;;;6205949;23;20360;-64
2021/04/15 00:03:35;;;;;;;15.73;10.02;;;3.10;70.80;;;;;;6208938;23;20275;-64
2021/04/15 00:06:11;;;;;;;14.10;9.48;;;3.10;71.20;;;;;;6211261;23;20004;-64
2021/04/15 00:08:36;;;;;;;16.77;10.13;;;3.20;70.50;;;;;;6200378;23;20211;-64
2021/04/15 00:11:05;;;;;;;14.57;10.20;;;3.10;71.00;;;;;;6203192;23;20011;-64
2021/04/15 00:13:34;;;;;;;16.65;11.23;;;2.90;71.70;;;;;;6230868;23;20013;-64
2021/04/15 00:15:59;;;;;;;14.63;10.50;;;2.80;72.30;;;;;;6207227;23;20008;-64
2021/04/15 00:18:25;;;;;;;15.05;10.75;;;2.60;72.90;;;;;;6210995;23;20039;-64
2021/04/15 00:20:51;;;;;;;14.25;10.32;;;2.70;73.30;;;;;;6199746;23;20339;-64
2021/04/15 00:23:16;;;;;;;14.68;9.80;;;2.60;73.40;;;;;;6201459;23;20005;-64
2021/04/15 00:25:42;;;;;;;16.45;10.80;;;2.60;73.60;;;;;;6230577;23;20009;-64
2021/04/15 00:28:08;;;;;;;16.10;10.23;;;2.50;73.90;;;;;;6206195;23;20015;-64
2021/04/15 00:30:34;;;;;;;15.52;10.55;;;2.70;74.30;;;;;;6183842;23;20054;-64
2021/04/15 00:32:59;;;;;;;14.52;10.77;;;2.60;74.40;;;;;;6151678;23;20004;-64
2021/04/15 00:35:25;;;;;;;17.00;10.38;;;2.80;74.30;;;;;;6227126;23;20008;-64
2021/04/15 00:37:50;;;;;;;14.77;10.60;;;2.90;74.00;;;;;;6203825;23;20009;-64
2021/04/15 00:40:18;;;;;;;15.57;10.65;;;3.00;74.00;;;;;;6205656;23;20242;-64
2021/04/15 00:42:43;;;;;;;15.50;10.68;;;3.20;73.60;;;;;;6207507;23;20000;-64
2021/04/15 00:45:15;;;;;;;14.18;9.98;;;3.20;73.10;;;;;;6227548;23;20016;-64
2021/04/15 00:47:42;;;;;;;14.23;10.27;;;3.30;73.40;;;;;;6175497;23;20005;-64
2021/04/15 00:50:32;;;;;;;15.80;10.50;;;3.20;73.00;;;;;;6202045;23;20009;-64
2021/04/15 00:52:59;;;;;;;13.48;10.15;;;3.20;73.40;;;;;;6177747;23;20219;-64
2021/04/15 00:55:26;;;;;;;14.25;9.75;;;3.20;72.90;;;;;;6205100;23;20020;-64
2021/04/15 00:57:52;;;;;;;14.85;10.38;;;3.50;73.10;;;;;;6233697;23;20231;-64
2021/04/15 01:00:22;;;;;;;12.88;9.38;;;3.80;71.40;;;;;;6210676;23;20055;-64
2021/04/15 01:02:48;;;;;;;14.68;9.35;;;3.80;71.90;;;;;;6175978;23;20032;-64
2021/04/15 01:05:32;;;;;;;15.10;9.48;;;3.90;71.40;;;;;;6197750;23;20005;-64
2021/04/15 01:07:57;;;;;;;14.13;8.90;;;3.90;71.00;;;;;;6202495;23;20009;-64
2021/04/15 01:10:23;;;;;;;12.15;9.48;;;3.50;71.10;;;;;;6203958;23;20009;-64
2021/04/15 01:13:13;;;;;;;14.35;9.48;;;3.40;71.30;;;;;;6182164;23;20012;-63
2021/04/15 01:16:13;;;;;;;12.77;9.40;;;3.10;72.30;;;;;;6234078;23;20015;-64
2021/04/15 01:19:16;;;;;;;13.55;9.70;;;3.00;73.00;;;;;;6182713;23;19988;-64
2021/04/15 01:22:05;;;;;;;14.55;9.35;;;3.30;72.00;;;;;;6234503;23;20083;-64
2021/04/15 01:25:03;;;;;;;14.50;10.23;;;2.90;72.40;;;;;;6212236;23;19996;-64
2021/04/15 01:27:49;;;;;;;15.07;10.38;;;2.60;73.50;;;;;;6210107;23;20015;-64
2021/04/15 01:30:41;;;;;;;13.10;9.73;;;2.60;73.80;;;;;;6199138;23;20028;-64
2021/04/15 01:33:14;;;;;;;12.77;9.15;;;3.00;73.50;;;;;;6198056;23;20055;-64
2021/04/15 01:35:55;;;;;;;14.43;9.57;;;3.20;73.00;;;;;;6199738;23;20335;-64
2021/04/15 01:38:28;;;;;;;13.77;9.32;;;3.30;71.40;;;;;;6204234;23;20008;-64
2021/04/15 01:41:03;;;;;;;14.25;10.02;;;3.50;71.00;;;;;;6202266;23;20031;-64
2021/04/15 01:43:35;;;;;;;14.60;10.52;;;3.50;70.40;;;;;;6204212;23;20004;-64
2021/04/15 01:46:01;;;;;;;16.92;10.02;;;3.00;70.50;;;;;;6157422;23;20005;-64
2021/04/15 01:48:28;;;;;;;18.02;10.45;;;2.60;72.10;;;;;;6185913;23;20301;-64
2021/04/15 01:51:08;;;;;;;15.95;10.25;;;2.40;73.40;;;;;;6148642;23;20008;-64
2021/04/15 01:53:48;;;;;;;16.13;10.10;;;2.50;73.60;;;;;;6176780;23;20016;-64
2021/04/15 01:56:33;;;;;;;16.70;10.27;;;2.70;72.80;;;;;;6151972;23;20008;-64
2021/04/15 01:59:11;;;;;;;17.25;11.63;;;2.60;72.90;;;;;;6178714;23;20004;-64
2021/04/15 02:01:42;;;;;;;17.10;10.93;;;2.30;73.10;;;;;;6179923;23;20292;-64
2021/04/15 02:04:09;;;;;;;;;;;2.10;74.20;;;;;;6180925;23;20028;-64
2021/04/15 02:06:36;;;;;;;14.68;10.77;;;2.10;74.60;;;;;;6223035;23;19896;-64
2021/04/15 02:09:11;;;;;;;14.38;10.38;;;2.40;74.50;;;;;;6210383;23;20000;-64
2021/04/15 02:11:42;;;;;;;15.02;10.38;;;2.40;74.20;;;;;;6199832;23;20005;-64
2021/04/15 02:14:09;;;;;;;14.38;10.25;;;2.60;73.60;;;;;;6202294;23;20192;-64
2021/04/15 02:16:35;;;;;;;14.32;10.23;;;2.60;73.10;;;;;;6203483;23;20001;-64
2021/04/15 02:19:10;;;;;;;15.82;11.25;;;2.60;72.90;;;;;;6197814;23;20322;-64
2021/04/15 02:22:11;;;;;;;15.95;11.27;;;2.30;73.00;;;;;;6183495;23;20224;-64
2021/04/15 02:24:39;;;;;;;16.75;10.77;;;1.90;74.20;;;;;;6207170;23;20056;-63
2021/04/15 02:27:14;;;;;;;16.35;11.57;;;1.80;74.90;;;;;;6236661;23;19996;-64
2021/04/15 02:29:41;;;;;;;19.42;12.00;;;1.70;75.20;;;;;;6175553;23;20001;-64
2021/04/15 02:32:19;;;;;;;19.33;12.45;;;1.60;75.60;;;;;;6201738;23;20005;-63
2021/04/15 02:34:49;;;;;;;18.25;11.88;;;1.60;75.90;;;;;;6178455;23;20064;-64
2021/04/15 02:37:17;;;;;;;16.35;11.05;;;1.70;76.00;;;;;;6180008;23;20172;-64
2021/04/15 02:39:45;;;;;;;14.95;10.70;;;1.80;76.30;;;;;;6182441;23;20214;-63
2021/04/15 02:42:14;;;;;;;15.90;10.90;;;2.20;75.80;;;;;;6185853;23;20008;-63
2021/04/15 02:44:47;;;;;;;16.83;10.85;;;2.10;73.70;;;;;;6174920;23;20319;-64
2021/04/15 02:47:16;;;;;;;18.27;11.13;;;2.50;73.80;;;;;;6178156;23;20043;-64
2021/04/15 02:49:41;;;;;;;13.93;9.85;;;2.50;72.50;;;;;;6202359;23;20041;-64
2021/04/15 02:52:14;;;;;;;15.43;10.68;;;2.40;72.80;;;;;;6204986;23;20242;-64
2021/04/15 02:54:45;;;;;;;15.65;10.20;;;2.10;72.80;;;;;;6182601;23;20066;-64
2021/04/15 02:57:43;;;;;;;;;;;2.10;73.10;;;;;;6186357;23;19997;-63
2021/04/15 03:00:12;;;;;;;17.80;11.65;;;2.20;73.20;;;;;;6190567;23;19904;-64
2021/04/15 03:02:44;;;;;;;15.48;10.80;;;2.10;73.00;;;;;;6198596;23;20295;-64
2021/04/15 03:05:15;;;;;;;16.48;11.27;;;2.10;73.90;;;;;;6176155;23;20207;-64
2021/04/15 03:07:41;;;;;;;14.52;10.68;;;2.60;73.00;;;;;;6180591;23;20203;-64
2021/04/15 03:10:15;;;;;;;14.77;10.45;;;2.70;72.00;;;;;;6182528;23;20303;-64
2021/04/15 03:13:11;;;;;;;15.70;9.98;;;2.90;70.40;;;;;;6199574;23;20016;-64
2021/04/15 03:15:45;;;;;;;15.60;11.15;;;2.90;70.20;;;;;;6195372;23;19992;-63
2021/04/15 03:18:14;;;;;;;17.63;11.32;;;2.80;70.30;;;;;;6188034;23;20176;-64
2021/04/15 03:20:47;;;;;;;15.75;10.55;;;2.50;69.90;;;;;;6200911;23;20008;-64
2021/04/15 03:23:22;;;;;;;15.98;11.88;;;2.20;71.20;;;;;;6202277;23;20008;-63
2021/04/15 03:25:48;;;;;;;19.27;12.35;;;1.90;71.60;;;;;;6181284;23;20219;-63
2021/04/15 03:28:17;;;;;;;19.08;11.98;;;1.50;72.90;;;;;;6233026;23;20004;-64
2021/04/15 03:30:56;;;;;;;17.33;11.85;;;1.40;73.70;;;;;;6208467;23;20001;-64
2021/04/15 03:33:29;;;;;;;17.35;11.48;;;1.40;74.60;;;;;;6237971;23;20000;-63
2021/04/15 03:36:27;;;;;;;18.75;12.02;;;1.40;75.10;;;;;;6176500;23;20012;-64
2021/04/15 03:38:56;;;;;;;17.67;11.73;;;1.40;74.90;;;;;;6204134;23;20017;-64
2021/04/15 03:41:34;;;;;;;16.77;11.85;;;1.30;75.10;;;;;;6177856;23;20075;-64
2021/04/15 03:44:04;;;;;;;16.48;11.38;;;1.30;75.50;;;;;;6180717;23;20004;-64
2021/04/15 03:46:39;;;;;;;16.55;11.25;;;1.50;75.30;;;;;;6174756;23;20008;-64
2021/04/15 03:49:14;;;;;;;17.17;11.15;;;1.60;74.40;;;;;;6208553;23;20004;-63
2021/04/15 03:52:07;;;;;;;21.67;11.77;;;1.50;74.00;;;;;;6183728;23;20325;-63
2021/04/15 03:54:38;;;;;;;14.77;10.98;;;1.70;73.70;;;;;;6203729;23;20056;-64
2021/04/15 03:57:04;;;;;;;17.65;11.18;;;2.20;73.00;;;;;;6211199;23;20051;-64
2021/04/15 04:00:02;;;;;;;16.33;11.30;;;2.00;71.50;;;;;;6175138;23;20244;-64
2021/04/15 04:02:34;;;;;;;17.10;10.90;;;1.80;72.20;;;;;;6205513;23;20012;-64
2021/04/15 04:05:07;;;;;;;18.10;11.82;;;1.70;72.50;;;;;;6204027;23;20064;-64
2021/04/15 04:07:37;;;;;;;18.13;11.73;;;1.80;73.30;;;;;;6205329;23;20001;-64
2021/04/15 04:10:07;;;;;;;16.42;10.95;;;1.90;73.00;;;;;;6206676;23;20011;-64
2021/04/15 04:12:51;;;;;;;18.05;11.10;;;2.10;72.20;;;;;;6184555;23;19996;-64
2021/04/15 04:15:26;;;;;;;16.48;10.90;;;1.90;71.50;;;;;;6237519;23;20060;-64
2021/04/15 04:18:00;;;;;;;17.15;11.85;;;1.90;72.10;;;;;;6200376;23;20009;-63
2021/04/15 04:20:27;;;;;;;16.08;10.98;;;1.80;72.00;;;;;;6201215;23;20012;-64
2021/04/15 04:23:03;;;;;;;15.98;11.07;;;1.90;72.30;;;;;;6203074;23;20009;-64
2021/04/15 04:25:47;;;;;;;18.30;11.32;;;2.00;72.10;;;;;;6204800;23;20013;-64
2021/04/15 04:28:21;;;;;;;20.10;12.07;;;1.90;71.90;;;;;;6230961;23;20004;-63
2021/04/15 04:30:52;;;;;;;17.67;10.95;;;1.70;72.10;;;;;;6183730;23;20001;-64
2021/04/15 04:33:19;;;;;;;18.67;11.32;;;1.70;73.00;;;;;;6210958;23;20056;-64
2021/04/15 04:35:46;;;;;;;18.70;11.23;;;2.10;72.50;;;;;;6175080;23;20035;-64
2021/04/15 04:38:12;;;;;;;20.35;12.80;;;2.20;71.90;;;;;;6177619;23;20358;-64
2021/04/15 04:40:42;;;;;;;17.67;10.77;;;2.30;70.60;;;;;;6203597;23;20008;-64
2021/04/15 04:43:25;;;;;;;17.55;10.57;;;2.20;70.80;;;;;;6206577;23;20330;-63
2021/04/15 04:45:55;;;;;;;15.75;10.05;;;2.30;72.10;;;;;;6183737;23;20027;-64
2021/04/15 04:48:41;;;;;;;18.27;9.85;;;2.40;71.30;;;;;;6210905;23;19992;-64
2021/04/15 04:51:10;;;;;;;19.20;10.70;;;2.80;70.20;;;;;;6175048;23;20262;-63
2021/04/15 04:53:37;;;;;;;19.23;10.80;;;2.70;68.80;;;;;;6175019;23;20028;-64
2021/04/15 04:56:20;;;;;;;17.83;10.80;;;2.50;69.60;;;;;;6177404;23;20012;-66
2021/04/15 04:58:51;;;;;;;15.63;10.57;;;2.20;70.80;;;;;;6203636;23;20020;-64
2021/04/15 05:01:16;;;;;;;18.70;11.05;;;2.40;71.10;;;;;;6180528;23;20079;-66
2021/04/15 05:03:42;;;;;;;19.75;10.82;;;2.40;70.00;;;;;;6207411;23;20188;-65
2021/04/15 05:06:09;;;;;;;17.45;11.32;;;2.70;70.50;;;;;;6211094;23;20227;-65
2021/04/15 05:08:52;;;;;;;18.20;10.15;;;2.70;70.60;;;;;;6175445;23;20191;-63
2021/04/15 05:11:18;;;;;;;18.98;10.55;;;3.00;70.00;;;;;;6173571;23;20015;-64
2021/04/15 05:13:43;;;;;;;17.05;10.00;;;3.10;69.10;;;;;;6229754;23;20296;-62
2021/04/15 05:16:09;;;;;;;17.33;10.23;;;3.20;69.40;;;;;;6181077;23;20224;-63
2021/04/15 05:18:35;;;;;;;16.05;10.45;;;3.20;69.20;;;;;;6208079;23;20004;-62
2021/04/15 05:21:16;;;;;;;13.60;9.07;;;3.10;69.70;;;;;;6211052;23;20218;-63
2021/04/15 05:23:48;;;;;;;17.25;9.98;;;3.30;69.50;;;;;;6202087;23;20068;-63
2021/04/15 05:26:25;;;;;;;20.88;9.50;;;3.30;69.30;;;;;;6177099;23;20179;-64
2021/04/15 05:28:51;;;;;;;17.67;9.13;;;3.10;69.50;;;;;;6201921;23;20330;-63
2021/04/15 05:31:18;;;;;;;16.92;9.25;;;3.20;69.80;;;;;;6204719;23;20004;-64
2021/04/15 05:33:44;;;;;;;16.02;9.05;;;3.10;70.10;;;;;;6182395;23;20004;-64
2021/04/15 05:36:22;;;;;;;14.57;9.10;;;2.70;69.30;;;;;;6185981;23;20310;-64
2021/04/15 05:38:49;;;;;;;17.98;9.85;;;2.90;71.20;;;;;;6174389;23;20009;-64
2021/04/15 05:41:36;;;;;;;18.27;8.90;;;3.30;70.50;;;;;;6200632;23;20015;-63
2021/04/15 05:44:07;;;;;;;15.57;8.48;;;3.40;69.10;;;;;;6201983;23;20016;-64
2021/04/15 05:46:42;;;;;;;20.23;9.05;;;3.50;68.80;;;;;;6150083;23;20005;-64
2021/04/15 05:49:09;;;;;;;15.43;8.57;;;3.40;68.20;;;;;;6180649;23;20295;-63
2021/04/15 05:52:08;;;;;;;17.58;7.57;;;3.40;68.50;;;;;;6152797;23;20013;-63
2021/04/15 05:54:34;;;;;;;22.92;8.10;;;3.10;66.30;;;;;;6190234;23;20095;-63
2021/04/15 05:57:16;;;;;;;19.45;7.53;;;3.40;67.90;;;;;;6180052;23;19997;-63
2021/04/15 06:00:09;;;;;;;16.02;7.60;;;3.40;66.50;;;;;;6170025;23;20021;-63
2021/04/15 06:02:37;;;;;;;14.50;7.75;;;3.50;65.60;;;;;;6194701;23;20063;-63
2021/04/15 06:05:23;;;;;;;13.00;7.55;;;3.90;64.70;;;;;;6196827;23;20063;-63
2021/04/15 06:07:50;;;;;;;21.73;7.80;;;4.00;63.70;;;;;;6199005;23;20228;-63
2021/04/15 06:10:19;;;;;;;18.88;7.47;;;4.00;63.10;;;;;;6175283;23;20013;-63
2021/04/15 06:13:01;;;;;;;13.45;7.85;;;4.10;63.50;;;;;;6203054;23;20100;-63
2021/04/15 06:15:30;;;;;;;13.32;7.20;;;4.10;63.60;;;;;;6181657;23;20001;-63
2021/04/15 06:17:58;;;;;;;13.07;7.95;;;4.10;61.80;;;;;;6193204;23;20005;-63
2021/04/15 06:20:43;;;;;;;18.48;7.78;;;4.10;63.20;;;;;;6194974;23;20005;-63
2021/04/15 06:23:16;;;;;;;19.35;7.85;;;4.40;62.70;;;;;;6170969;23;20005;-63
2021/04/15 06:25:46;;;;;;;20.25;7.85;;;4.40;62.70;;;;;;6197458;23;20005;-63
2021/04/15 06:28:20;;;;;;;14.63;8.10;;;4.50;62.00;;;;;;6199724;23;20013;-63
2021/04/15 06:30:55;;;;;;;13.82;7.40;;;4.80;61.30;;;;;;6144291;23;20012;-63
2021/04/15 06:33:20;;;;;;;14.25;8.45;;;4.90;61.50;;;;;;6204657;23;20001;-64
2021/04/15 06:35:47;;;;;;;14.98;8.18;;;4.90;60.20;;;;;;6195174;23;20032;-63
2021/04/15 06:38:14;;;;;;;13.38;7.68;;;5.20;60.70;;;;;;6195205;23;20112;-63
2021/04/15 06:41:08;;;;;;;14.45;8.02;;;5.90;58.90;;;;;;6197391;23;20350;-63
2021/04/15 06:44:16;;;;;;;17.27;8.05;;;5.90;58.90;;;;;;6176508;23;20005;-63
2021/04/15 06:47:20;;;;;;;15.48;7.97;;;6.10;58.00;;;;;;6172719;23;20001;-63
2021/04/15 06:50:12;;;;;;;13.45;7.72;;;6.40;58.10;;;;;;6196260;23;20241;-63
2021/04/15 06:53:11;;;;;;;15.18;8.40;;;6.30;56.20;;;;;;6220452;23;20028;-63
2021/04/15 06:56:15;;;;;;;14.38;8.25;;;6.60;55.10;;;;;;6229527;23;20009;-63
2021/04/15 06:58:46;;;;;;;11.00;7.28;;;6.80;54.10;;;;;;6182041;23;20012;-63
2021/04/15 07:01:24;;;;;;;11.93;7.40;;;7.80;53.30;;;;;;6204663;23;20083;-64
2021/04/15 07:04:04;;;;;;;13.02;7.80;;;8.60;50.40;;;;;;6183237;23;20083;-64
2021/04/15 07:06:46;;;;;;;10.27;7.28;;;7.90;47.80;;;;;;6235066;23;19992;-63
2021/04/15 07:09:34;;;;;;;12.68;7.57;;;7.80;48.60;;;;;;6224319;23;20232;-63
2021/04/15 07:12:05;;;;;;;10.80;7.38;;;8.00;48.10;;;;;;6199279;23;20160;-63
2021/04/15 07:14:35;;;;;;;;;;;8.60;46.50;;;;;;6226116;23;20004;-64
2021/04/15 07:17:07;;;;;;;13.20;7.75;;;9.40;47.00;;;;;;6223107;23;19900;-64
2021/04/15 07:20:23;;;;;;;12.90;7.05;;;8.80;45.10;;;;;;6203936;23;20008;-63
2021/04/15 07:23:04;;;;;;;12.30;7.85;;;8.70;48.60;;;;;;6137190;23;20281;-63
2021/04/15 07:26:11;;;;;;;14.77;7.38;;;8.10;48.10;;;;;;6139275;23;20010;-63
2021/04/15 07:29:01;;;;;;;13.27;7.32;;;7.60;49.80;;;;;;6054111;23;20015;-63
2021/04/15 07:31:45;;;;;;;18.15;8.07;;;7.90;50.70;;;;;;6230076;23;20028;-64
2021/04/15 07:34:34;;;;;;;14.10;7.20;;;7.70;50.90;;;;;;6231248;23;20008;-64
2021/04/15 07:37:20;;;;;;;14.38;7.38;;;7.40;52.10;;;;;;6232025;23;20020;-64
2021/04/15 07:40:20;;;;;;;14.50;7.30;;;7.50;52.70;;;;;;6206786;23;20051;-64
2021/04/15 07:42:53;;;;;;;17.15;9.85;;;8.30;49.50;;;;;;6206233;23;20001;-64
2021/04/15 07:45:35;;;;;;;11.52;9.23;;;20.30;28.80;;;;;;6185896;23;20290;-65
2021/04/15 07:48:06;;;;;;;9.75;8.02;;;30.70;16.90;;;;;;6198527;23;20019;-64
2021/04/15 07:50:47;;;;;;;10.60;7.68;;;35.80;12.10;;;;;;6225347;23;20013;-64
2021/04/15 07:53:12;;;;;;;8.17;6.13;;;39.90;9.30;;;;;;6227954;23;20025;-64
2021/04/15 07:55:53;;;;;;;9.45;6.18;;;39.50;8.10;;;;;;6230850;23;20231;-65
2021/04/15 07:58:46;;;;;;;9.35;5.68;;;32.70;12.00;;;;;;6181057;23;20334;-63
2021/04/15 08:01:40;;;;;;;9.13;6.32;;;24.70;17.70;;;;;;6184671;23;20012;-62
2021/04/15 08:04:38;;;;;;;11.05;6.95;;;20.10;23.70;;;;;;6185556;23;20300;-63
2021/04/15 08:07:26;;;;;;;14.50;6.85;;;17.10;28.00;;;;;;6206978;23;20278;-63
2021/04/15 08:10:06;;;;;;;11.57;6.78;;;15.20;30.60;;;;;;6207524;23;20009;-63
2021/04/15 08:13:10;;;;;;;12.10;7.03;;;13.90;34.20;;;;;;6235560;23;19993;-62
2021/04/15 08:16:04;;;;;;;12.13;6.65;;;12.10;34.90;;;;;;6159747;23;20272;-63
2021/04/15 08:18:41;;;;;;;11.45;6.47;;;11.20;37.20;;;;;;6187633;23;20248;-64
2021/04/15 08:21:35;;;;;;;13.45;6.97;;;11.10;39.70;;;;;;6186664;23;20028;-62
2021/04/15 08:24:20;;;;;;;13.18;7.00;;;10.90;37.80;;;;;;6226204;23;20005;-62
2021/04/15 08:27:19;;;;;;;9.13;6.78;;;10.50;40.40;;;;;;6177222;23;20031;-62
2021/04/15 08:30:22;;;;;;;13.48;6.43;;;10.50;40.80;;;;;;6179327;23;20008;-62
2021/04/15 08:33:03;;;;;;;11.85;6.15;;;10.90;40.70;;;;;;6226049;23;20008;-62
2021/04/15 08:35:57;;;;;;;12.07;6.25;;;11.10;40.80;;;;;;6201349;23;20013;-61
2021/04/15 08:38:50;;;;;;;8.85;6.22;;;10.90;38.20;;;;;;6204908;23;20035;-62
2021/04/15 08:41:42;;;;;;;11.27;6.40;;;10.80;38.60;;;;;;6206399;23;20016;-61
2021/04/15 08:44:55;;;;;;;12.13;6.72;;;11.30;39.50;;;;;;6193725;23;20012;-62
2021/04/15 08:47:42;;;;;;;10.10;6.75;;;11.50;39.00;;;;;;6158656;23;20288;-62
2021/04/15 08:50:16;;;;;;;8.25;6.43;;;11.50;39.40;;;;;;6227925;23;20001;-62
2021/04/15 08:53:23;;;;;;;11.45;6.28;;;11.10;38.00;;;;;;6179523;23;20021;-62
2021/04/15 08:55:51;;;;;;;11.52;6.30;;;11.00;40.60;;;;;;6203429;23;20322;-61
2021/04/15 08:58:22;;;;;;;10.75;6.10;;;10.90;39.40;;;;;;6205245;23;20004;-62
2021/04/15 09:01:02;;;;;;;8.05;5.75;;;10.80;37.10;;;;;;6233653;23;20023;-62
2021/04/15 09:03:38;;;;;;;15.18;6.88;;;10.30;39.20;;;;;;6210586;23;20016;-62
2021/04/15 09:06:13;;;;;;;11.10;6.22;;;10.90;40.60;;;;;;6199461;23;20063;-62
2021/04/15 09:08:53;;;;;;;15.77;6.75;;;11.30;40.90;;;;;;6225979;23;20005;-61
2021/04/15 09:11:24;;;;;;;11.88;6.90;;;11.10;37.80;;;;;;6177191;23;20019;-62
2021/04/15 09:14:21;;;;;;;11.23;6.70;;;10.80;39.10;;;;;;6198736;23;20304;-61
2021/04/15 09:17:08;;;;;;;12.70;7.10;;;10.80;40.50;;;;;;6203496;23;20016;-62
2021/04/15 09:20:12;;;;;;;10.70;6.47;;;10.40;39.30;;;;;;6198751;23;20025;-61
2021/04/15 09:22:54;;;;;;;9.32;6.40;;;10.60;39.60;;;;;;6197470;23;20051;-62
2021/04/15 09:25:24;;;;;;;10.52;6.20;;;10.30;38.50;;;;;;6204411;23;20342;-61
2021/04/15 09:28:01;;;;;;;9.82;6.22;;;9.90;38.60;;;;;;6207318;23;20001;-61
2021/04/15 09:30:45;;;;;;;9.57;5.55;;;10.00;39.70;;;;;;6210311;23;20062;-61
2021/04/15 09:33:55;;;;;;;10.80;5.47;;;10.60;38.00;;;;;;6225634;23;20283;-61
2021/04/15 09:36:40;;;;;;;8.70;5.40;;;11.00;35.50;;;;;;6194517;23;20034;-61
2021/04/15 09:39:30;;;;;;;6.22;4.32;;;10.60;35.30;;;;;;6225199;23;20005;-61
2021/04/15 09:42:18;;;;;;;9.75;5.20;;;10.90;36.50;;;;;;6225508;23;20005;-61
2021/04/15 09:44:43;;;;;;;9.20;5.47;;;10.40;34.70;;;;;;6203591;23;20017;-62
2021/04/15 09:47:32;;;;;;;18.92;6.22;;;10.40;37.20;;;;;;6227715;23;20367;-62
2021/04/15 09:50:31;;;;;;;10.93;6.35;;;10.80;38.40;;;;;;6180618;23;20009;-62
2021/04/15 09:53:11;;;;;;;13.55;6.43;;;10.60;37.20;;;;;;6191522;23;20107;-61
2021/04/15 09:56:16;;;;;;;12.02;5.45;;;10.10;39.20;;;;;;6203040;23;20349;-62
2021/04/15 09:59:19;;;;;;;10.75;4.78;;;10.30;38.70;;;;;;6182984;23;20227;-61
2021/04/15 10:01:47;;;;;;;17.38;4.82;;;10.50;39.20;;;;;;6228430;23;20009;-61
2021/04/15 10:04:23;;;;;;;9.90;4.85;;;10.40;37.80;;;;;;6180450;23;20071;-61
2021/04/15 10:06:54;;;;;;;7.43;3.50;;;10.40;37.40;;;;;;6208647;23;20000;-61
2021/04/15 10:09:37;;;;;;;4.28;3.40;;;10.20;35.70;;;;;;6185933;23;20183;-61
2021/04/15 10:12:25;;;;;;;7.97;4.70;;;10.10;35.00;;;;;;6198771;23;20035;-61
2021/04/15 10:15:02;;;;;;;8.65;4.70;;;10.00;36.80;;;;;;6176759;23;20068;-61
2021/04/15 10:17:33;;;;;;;7.30;4.03;;;9.90;37.60;;;;;;6199691;23;20346;-60
2021/04/15 10:20:17;;;;;;;5.07;3.80;;;9.90;35.70;;;;;;6227843;23;20236;-61
2021/04/15 10:23:02;;;;;;;7.10;4.18;;;9.90;37.10;;;;;;6229197;23;20011;-61
2021/04/15 10:25:30;;;;;;;8.25;3.97;;;9.90;35.60;;;;;;6179223;23;20008;-62
2021/04/15 10:28:17;;;;;;;7.40;4.50;;;9.80;37.90;;;;;;6181142;23;20054;-61
2021/04/15 10:31:15;;;;;;;8.05;3.95;;;10.20;36.80;;;;;;6232977;23;20026;-60
2021/04/15 10:34:13;;;;;;;7.65;4.30;;;10.50;38.20;;;;;;6223400;23;20046;-61
2021/04/15 10:36:51;;;;;;;8.27;4.50;;;10.80;39.10;;;;;;6195986;23;20005;-60
2021/04/15 10:39:22;;;;;;;5.47;4.70;;;11.40;38.90;;;;;;6236041;23;20000;-61
2021/04/15 10:42:26;;;;;;;5.05;3.67;;;11.70;35.50;;;;;;6197329;23;20080;-62
2021/04/15 10:45:17;;;;;;;8.40;4.45;;;11.30;33.30;;;;;;6198084;23;20299;-60
2021/04/15 10:48:02;;;;;;;7.72;4.28;;;11.40;36.90;;;;;;6225059;23;20183;-61
2021/04/15 10:50:33;;;;;;;6.05;4.40;;;11.90;36.30;;;;;;6199736;23;20004;-61
2021/04/15 10:53:06;;;;;;;13.43;5.88;;;12.00;35.90;;;;;;6201300;23;20025;-61
2021/04/15 10:55:35;;;;;;;13.23;5.45;;;11.80;37.30;;;;;;6179626;23;20008;-61
2021/04/15 10:58:27;;;;;;;12.68;5.50;;;11.60;38.10;;;;;;6232438;23;20323;-61
2021/04/15 11:00:53;;;;;;;7.97;5.50;;;11.10;40.40;;;;;;6232534;23;20079;-62
2021/04/15 11:03:20;;;;;;;10.05;5.75;;;11.10;41.10;;;;;;6160793;23;20004;-62
2021/04/15 11:05:48;;;;;;;9.38;5.40;;;11.00;40.80;;;;;;6225089;23;20030;-62
2021/04/15 11:08:27;;;;;;;8.85;5.22;;;10.80;41.40;;;;;;6200292;23;20031;-62
2021/04/15 11:11:19;;;;;;;11.18;5.97;;;10.60;41.00;;;;;;6178524;23;20192;-62
2021/04/15 11:13:44;;;;;;;6.28;5.15;;;10.40;41.90;;;;;;6202551;23;20008;-62
2021/04/15 11:16:20;;;;;;;7.25;5.32;;;10.20;43.00;;;;;;6172745;23;20220;-61
2021/04/15 11:18:45;;;;;;;7.10;5.35;;;10.00;43.10;;;;;;6156710;23;20291;-63
2021/04/15 11:21:20;;;;;;;7.85;5.50;;;9.90;43.90;;;;;;6199637;23;20000;-64
2021/04/15 11:23:47;;;;;;;12.40;5.75;;;10.30;43.30;;;;;;6224855;23;20004;-62
2021/04/15 11:26:28;;;;;;;8.25;4.90;;;10.70;45.10;;;;;;6199879;23;20005;-62
2021/04/15 11:28:58;;;;;;;8.00;5.05;;;11.20;43.90;;;;;;6180746;23;20008;-63
2021/04/15 11:31:39;;;;;;;7.00;4.78;;;11.40;41.90;;;;;;6206478;23;20009;-62
2021/04/15 11:34:29;;;;;;;7.68;4.75;;;11.60;42.00;;;;;;6233275;23;20015;-62
2021/04/15 11:37:04;;;;;;;6.53;4.50;;;11.80;40.60;;;;;;6203660;23;20012;-61
2021/04/15 11:39:36;;;;;;;7.45;4.30;;;11.90;40.30;;;;;;6177872;23;20060;-62
2021/04/15 11:42:10;;;;;;;8.18;4.38;;;12.10;39.30;;;;;;6200662;23;20005;-62
2021/04/15 11:44:40;;;;;;;4.55;3.80;;;12.30;40.10;;;;;;6175493;23;20032;-64
2021/04/15 11:47:23;;;;;;;9.70;4.18;;;12.40;38.10;;;;;;6178207;23;20012;-63
2021/04/15 11:49:49;;;;;;;5.78;4.07;;;12.30;38.50;;;;;;6180840;23;20005;-63
2021/04/15 11:52:46;;;;;;;5.63;4.30;;;12.30;37.40;;;;;;6180836;23;20099;-64
2021/04/15 11:55:30;;;;;;;10.73;4.70;;;12.40;37.10;;;;;;6197916;23;20012;-64
2021/04/15 11:58:00;;;;;;;6.40;4.85;;;12.40;37.40;;;;;;6233790;23;20008;-63
2021/04/15 12:00:32;;;;;;;6.47;4.68;;;12.30;36.80;;;;;;6237506;23;20000;-63
2021/04/15 12:02:58;;;;;;;7.57;4.65;;;12.30;36.90;;;;;;6200036;23;20024;-64
2021/04/15 12:05:29;;;;;;;5.20;4.20;;;12.40;35.70;;;;;;6228224;23;20024;-64
2021/04/15 12:08:09;;;;;;;7.53;4.13;;;12.60;37.30;;;;;;6203488;23;20017;-64
2021/04/15 12:11:00;;;;;;;7.13;4.32;;;12.50;34.90;;;;;;6205265;23;20070;-64
2021/04/15 12:13:40;;;;;;;5.68;4.10;;;12.70;35.00;;;;;;6174796;23;20055;-64
2021/04/15 12:16:15;;;;;;;8.15;4.40;;;12.70;35.10;;;;;;6183855;23;20338;-64
2021/04/15 12:18:52;;;;;;;6.70;4.22;;;12.80;35.20;;;;;;6209676;23;20028;-64
2021/04/15 12:21:40;;;;;;;6.45;4.07;;;12.80;36.10;;;;;;6187381;23;20010;-64
2021/04/15 12:24:25;;;;;;;5.53;3.80;;;12.80;35.70;;;;;;6200163;23;20004;-63
2021/04/15 12:27:03;;;;;;;7.53;4.25;;;13.00;35.60;;;;;;6153892;23;20061;-64
2021/04/15 12:29:56;;;;;;;6.57;4.30;;;13.10;34.70;;;;;;6200893;23;20284;-64
2021/04/15 12:32:53;;;;;;;6.80;3.75;;;13.10;33.90;;;;;;6201242;23;20024;-63
2021/04/15 12:35:45;;;;;;;8.55;4.03;;;13.10;34.00;;;;;;6227514;23;20016;-64
2021/04/15 12:38:34;;;;;;;4.70;4.03;;;13.10;34.60;;;;;;6201301;23;20032;-64
2021/04/15 12:41:05;;;;;;;7.78;4.00;;;13.10;34.50;;;;;;6203623;23;20232;-63
2021/04/15 12:43:52;;;;;;;8.65;4.50;;;13.10;36.00;;;;;;6204526;23;20004;-64
2021/04/15 12:46:22;;;;;;;9.45;4.82;;;12.90;35.60;;;;;;6231596;23;20075;-64
2021/04/15 12:49:03;;;;;;;7.15;4.82;;;13.10;35.30;;;;;;6183310;23;20000;-63
2021/04/15 12:51:36;;;;;;;8.88;5.47;;;13.00;35.10;;;;;;6211193;23;20004;-63
2021/04/15 12:54:07;;;;;;;10.60;5.63;;;12.40;35.10;;;;;;6200008;23;20035;-64
2021/04/15 12:56:41;;;;;;;8.15;5.45;;;11.80;33.70;;;;;;6200797;23;20008;-63
2021/04/15 12:59:07;;;;;;;10.75;5.60;;;11.10;37.60;;;;;;6228124;23;20008;-65
2021/04/15 13:01:34;;;;;;;9.52;5.97;;;11.00;37.30;;;;;;6204253;23;20064;-64
2021/04/15 13:04:15;;;;;;;11.73;5.40;;;11.10;38.20;;;;;;6206233;23;20008;-63
2021/04/15 13:06:59;;;;;;;9.63;5.32;;;11.10;38.10;;;;;;6208692;23;20046;-63
2021/04/15 13:09:29;;;;;;;8.48;4.93;;;11.30;40.80;;;;;;6237189;23;20375;-64
2021/04/15 13:11:54;;;;;;;5.85;4.70;;;11.90;39.40;;;;;;6198856;23;20012;-64
2021/04/15 13:14:40;;;;;;;9.15;5.00;;;12.20;37.40;;;;;;6176124;23;20323;-64
2021/04/15 13:17:06;;;;;;;6.53;4.32;;;12.00;36.10;;;;;;6228395;23;20000;-63
2021/04/15 13:19:33;;;;;;;6.15;4.80;;;12.00;36.80;;;;;;6154343;23;20009;-63
2021/04/15 13:22:05;;;;;;;10.32;4.72;;;12.10;36.10;;;;;;6206436;23;20012;-64
2021/04/15 13:24:46;;;;;;;6.38;4.63;;;11.80;36.10;;;;;;6183441;23;20310;-64
2021/04/15 13:27:36;;;;;;;8.02;4.47;;;11.90;37.50;;;;;;6237027;23;20307;-64
2021/04/15 13:30:14;;;;;;;8.52;4.30;;;12.00;36.60;;;;;;6225817;23;20027;-64
2021/04/15 13:32:58;;;;;;;10.35;4.70;;;12.20;35.50;;;;;;6226102;23;20012;-64
2021/04/15 13:35:35;;;;;;;10.13;3.92;;;12.10;34.80;;;;;;6200269;23;20303;-64
2021/04/15 13:38:01;;;;;;;8.70;4.50;;;11.90;34.70;;;;;;6178199;23;20005;-63